createdAt,value
2023-01-20T00:05:04.074Z,97983.21
2023-01-20T00:10:08.108Z,97980.38
2023-01-20T00:15:15.416Z,97978.98
2023-01-20T00:20:18.428Z,97976.08
2023-01-20T00:25:21.107Z,97978.70
2023-01-20T00:30:23.563Z,97985.98
2023-01-20T00:35:26.891Z,97981.91
2023-01-20T00:40:28.985Z,97978.33
2023-01-20T00:45:31.125Z,97979.64
2023-01-20T00:50:33.628Z,97989.98
2023-01-20T00:55:35.696Z,97992.91
2023-01-20T01:00:37.740Z,97986.96
2023-01-20T01:05:40.081Z,97985.41
2023-01-20T01:10:42.708Z,97990.34
2023-01-20T01:15:58.579Z,98016.98
2023-01-20T01:21:06.474Z,98033.16
2023-01-20T01:26:08.512Z,98028.05
2023-01-20T01:31:10.708Z,98033.56
2023-01-20T01:36:14.646Z,98049.85
2023-01-20T01:41:17.576Z,98059.17
2023-01-20T01:46:22.230Z,98081.13
2023-01-20T01:52:02.364Z,98083.44
2023-01-20T01:57:07.519Z,98061.81
2023-01-20T02:02:09.903Z,98049.84
2023-01-20T02:07:18.307Z,98058.77
2023-01-20T02:12:22.518Z,98065.05
2023-01-20T02:17:38.221Z,98054.68
2023-01-20T02:23:02.131Z,98066.53
2023-01-20T02:28:18.219Z,98067.25
2023-01-20T02:33:32.103Z,98070.91
2023-01-20T02:39:01.113Z,98073.02
2023-01-20T02:44:28.632Z,98046.09
2023-01-20T02:49:41.087Z,98047.30
2023-01-20T02:54:50.395Z,98042.16
2023-01-20T02:59:57.146Z,98031.54
2023-01-20T03:05:13.380Z,98029.57
2023-01-20T03:10:19.168Z,98042.66
2023-01-20T03:15:26.615Z,98051.48
2023-01-20T03:20:28.665Z,98057.77
2023-01-20T03:25:31.085Z,98056.51
2023-01-20T03:30:33.147Z,98053.82
2023-01-20T03:35:36.078Z,98067.47
2023-01-20T03:40:48.666Z,98078.34
2023-01-20T03:46:00.675Z,98082.67
2023-01-20T03:51:17.676Z,98096.08
2023-01-20T03:56:33.321Z,98107.33
2023-01-20T04:01:39.838Z,98113.14
2023-01-20T04:06:43.919Z,98109.39
2023-01-20T04:11:46.560Z,98106.11
2023-01-20T04:16:59.002Z,98114.39
2023-01-20T04:22:07.871Z,98119.73
2023-01-20T04:27:10.082Z,98134.38
2023-01-20T04:32:12.722Z,98134.41
2023-01-20T04:37:15.383Z,98147.64
2023-01-20T04:42:17.787Z,98154.55
2023-01-20T04:47:19.762Z,98148.95
2023-01-20T04:52:22.117Z,98138.74
2023-01-20T04:57:24.004Z,98133.42
2023-01-20T05:02:26.213Z,98139.40
2023-01-20T05:07:28.383Z,98153.61
2023-01-20T05:12:31.079Z,98161.84
2023-01-20T05:17:33.145Z,98169.62
2023-01-20T05:22:35.141Z,98177.48
2023-01-20T05:27:38.064Z,98188.78
2023-01-20T05:32:46.746Z,98189.04
2023-01-20T05:37:48.639Z,98174.81
2023-01-20T05:42:53.174Z,98174.26
2023-01-20T05:47:59.467Z,98178.05
2023-01-20T05:53:02.111Z,98180.63
2023-01-20T05:58:05.264Z,98185.50
2023-01-20T06:03:10.049Z,98189.08
2023-01-20T06:08:12.358Z,98196.06
2023-01-20T06:13:14.249Z,98201.59
2023-01-20T06:18:19.435Z,98209.27
2023-01-20T06:23:21.771Z,98220.59
2023-01-20T06:28:23.926Z,98224.06
2023-01-20T06:33:25.888Z,98230.60
2023-01-20T06:38:31.332Z,98227.13
2023-01-20T06:43:35.394Z,98235.05
2023-01-20T06:48:37.673Z,98240.67
2023-01-20T06:53:40.370Z,98241.39
2023-01-20T06:58:43.183Z,98234.80
2023-01-20T07:03:45.166Z,98240.98
2023-01-20T07:08:47.210Z,98262.67
2023-01-20T07:13:49.625Z,98275.35
2023-01-20T07:18:52.731Z,98275.73
2023-01-20T07:23:55.604Z,98262.77
2023-01-20T07:28:59.141Z,98269.96
2023-01-20T07:34:01.169Z,98278.89
2023-01-20T07:39:03.205Z,98283.17
2023-01-20T07:44:05.366Z,98288.54
2023-01-20T07:49:07.195Z,98295.40
2023-01-20T07:54:11.722Z,98299.70
2023-01-20T07:59:13.684Z,98306.56
2023-01-20T08:04:15.842Z,98304.08
2023-01-20T08:09:17.900Z,98310.27
2023-01-20T08:14:20.372Z,98312.98
2023-01-20T08:19:22.438Z,98315.21
2023-01-20T08:24:24.466Z,98327.45
2023-01-20T08:29:27.737Z,98333.95
2023-01-20T08:34:30.668Z,98341.30
2023-01-20T08:39:33.079Z,98349.59
2023-01-20T08:44:35.554Z,98352.02
2023-01-20T08:49:37.777Z,98349.69
2023-01-20T08:54:39.907Z,98350.90
2023-01-20T08:59:42.462Z,98355.40
2023-01-20T09:04:44.734Z,98369.90
2023-01-20T09:09:49.871Z,98369.52
2023-01-20T09:14:51.717Z,98374.61
2023-01-20T09:19:55.039Z,98375.61
2023-01-20T09:24:57.252Z,98380.55
2023-01-20T09:30:35.510Z,98383.58
2023-01-20T09:35:41.279Z,98382.98
2023-01-20T09:41:36.847Z,98373.00
2023-01-20T09:47:21.932Z,98363.02
2023-01-20T09:52:51.985Z,98360.25
2023-01-20T09:58:48.843Z,98357.78
2023-01-20T10:04:31.159Z,98364.47
2023-01-20T10:09:44.702Z,98365.58
2023-01-20T10:15:07.405Z,98360.69
2023-01-20T10:20:39.403Z,98351.17
2023-01-20T10:25:50.118Z,98346.40
2023-01-20T10:30:52.300Z,98348.86
2023-01-20T10:35:58.420Z,98345.47
2023-01-20T10:41:13.974Z,98352.67
2023-01-20T10:46:47.469Z,98354.14
2023-01-20T10:52:11.313Z,98357.23
2023-01-20T10:57:15.653Z,98355.21
2023-01-20T11:02:22.907Z,98356.59
2023-01-20T11:07:25.926Z,98353.22
2023-01-20T11:12:32.407Z,98359.67
2023-01-20T11:17:34.533Z,98355.75
2023-01-20T11:22:37.978Z,98348.83
2023-01-20T11:27:46.035Z,98342.23
2023-01-20T11:33:08.712Z,98332.45
2023-01-20T11:38:24.851Z,98322.98
2023-01-20T11:43:34.589Z,98321.20
2023-01-20T11:48:36.625Z,98325.24
2023-01-20T11:53:39.284Z,98316.35
2023-01-20T11:59:01.895Z,98308.04
2023-01-20T12:04:23.430Z,98299.17
2023-01-20T12:09:32.765Z,98298.70
2023-01-20T12:14:43.568Z,98295.41
2023-01-20T12:20:20.172Z,98294.94
2023-01-20T12:25:27.129Z,98295.21
2023-01-20T12:30:38.448Z,98295.03
2023-01-20T12:35:56.500Z,98295.44
2023-01-20T12:41:05.891Z,98302.54
2023-01-20T12:46:38.200Z,98313.48
2023-01-20T12:51:43.020Z,98328.66
2023-01-20T12:57:00.436Z,98334.02
2023-01-20T13:02:37.559Z,98343.37
2023-01-20T13:08:18.760Z,98350.17
2023-01-20T13:13:55.973Z,98354.70
2023-01-20T13:19:30.294Z,98352.90
2023-01-20T13:24:32.448Z,98357.94
2023-01-20T13:29:34.840Z,98370.48
2023-01-20T13:34:40.288Z,98379.38
2023-01-20T13:39:51.475Z,98384.62
2023-01-20T13:45:11.597Z,98388.40
2023-01-20T13:50:38.760Z,98387.69
2023-01-20T13:55:40.724Z,98386.42
2023-01-20T14:00:44.749Z,98395.20
2023-01-20T14:06:08.149Z,98400.10
2023-01-20T14:11:26.771Z,98391.67
2023-01-20T14:16:37.477Z,98383.65
2023-01-20T14:21:40.814Z,98383.36
2023-01-20T14:26:42.773Z,98385.95
2023-01-20T14:31:46.220Z,98385.59
2023-01-20T14:36:48.281Z,98389.16
2023-01-20T14:41:55.593Z,98389.67
2023-01-20T14:46:59.371Z,98384.70
2023-01-20T14:52:02.319Z,98382.55
2023-01-20T14:57:43.391Z,98380.51
2023-01-20T15:03:10.947Z,98402.52
2023-01-20T15:08:26.020Z,98411.95
2023-01-20T15:13:31.216Z,98421.60
2023-01-20T15:18:33.679Z,98419.83
2023-01-20T15:23:38.288Z,98425.92
2023-01-20T15:28:44.518Z,98431.94
2023-01-20T15:33:48.549Z,98432.92
2023-01-20T15:38:51.009Z,98431.51
2023-01-20T15:43:52.882Z,98433.77
2023-01-20T15:49:02.580Z,98431.45
2023-01-20T15:54:07.359Z,98432.48
2023-01-20T15:59:20.855Z,98435.73
2023-01-20T16:04:24.297Z,98442.23
2023-01-20T16:09:29.865Z,98445.80
2023-01-20T16:14:34.564Z,98451.21
2023-01-20T16:19:38.235Z,98453.06
2023-01-20T16:24:41.574Z,98456.69
2023-01-20T16:29:44.346Z,98459.02
2023-01-20T16:34:46.856Z,98464.95
2023-01-20T16:39:48.728Z,98465.75
2023-01-20T16:44:52.934Z,98470.52
2023-01-20T16:49:54.969Z,98474.63
2023-01-20T16:54:57.084Z,98470.64
2023-01-20T16:59:59.833Z,98471.34
2023-01-20T17:05:02.284Z,98470.54
2023-01-20T17:10:08.825Z,98473.39
2023-01-20T17:15:11.952Z,98478.82
2023-01-20T17:20:14.306Z,98482.46
2023-01-20T17:25:20.126Z,98486.61
2023-01-20T17:30:24.546Z,98493.61
2023-01-20T17:35:28.067Z,98492.81
2023-01-20T17:40:31.383Z,98491.82
2023-01-20T17:45:35.025Z,98497.09
2023-01-20T17:50:39.456Z,98493.50
2023-01-20T17:55:42.033Z,98482.74
2023-01-20T18:00:44.857Z,98483.16
2023-01-20T18:05:47.280Z,98480.33
2023-01-20T18:10:51.835Z,98475.44
2023-01-20T18:15:53.989Z,98476.30
2023-01-20T18:20:56.315Z,98473.99
2023-01-20T18:25:59.016Z,98467.25
2023-01-20T18:31:10.592Z,98465.89
2023-01-20T18:36:15.987Z,98458.84
2023-01-20T18:41:22.220Z,98450.80
2023-01-20T18:46:25.977Z,98452.20
2023-01-20T18:51:30.287Z,98449.38
2023-01-20T18:56:34.623Z,98444.79
2023-01-20T19:01:40.537Z,98445.41
2023-01-20T19:06:44.844Z,98437.45
2023-01-20T19:11:47.517Z,98431.79
2023-01-20T19:16:51.692Z,98437.80
2023-01-20T19:21:53.843Z,98428.24
2023-01-20T19:26:58.722Z,98427.34
2023-01-20T19:32:01.683Z,98428.14
2023-01-20T19:37:03.514Z,98422.02
2023-01-20T19:42:05.480Z,98418.69
2023-01-20T19:47:07.728Z,98420.13
2023-01-20T19:52:09.762Z,98421.44
2023-01-20T19:57:11.987Z,98423.61
2023-01-20T20:02:14.198Z,98423.42
2023-01-20T20:07:16.317Z,98419.09
2023-01-20T20:12:18.258Z,98419.10
2023-01-20T20:17:21.264Z,98426.30
2023-01-20T20:22:23.589Z,98423.31
2023-01-20T20:27:26.834Z,98427.76
2023-01-20T20:32:29.352Z,98419.23
2023-01-20T20:37:31.470Z,98427.39
2023-01-20T20:42:35.201Z,98426.89
2023-01-20T20:47:37.372Z,98418.02
2023-01-20T20:52:39.292Z,98408.59
2023-01-20T20:57:41.591Z,98402.24
2023-01-20T21:02:46.271Z,98397.90
2023-01-20T21:07:48.995Z,98394.25
2023-01-20T21:12:51.614Z,98390.59
2023-01-20T21:17:53.819Z,98389.48
2023-01-20T21:22:58.495Z,98385.10
2023-01-20T21:28:00.653Z,98395.41
2023-01-20T21:33:03.157Z,98396.41
2023-01-20T21:38:08.692Z,98394.05
2023-01-20T21:43:29.514Z,98387.39
2023-01-20T21:48:51.074Z,98388.35
2023-01-20T21:53:53.630Z,98383.95
2023-01-20T21:58:56.296Z,98375.91
2023-01-20T22:03:58.354Z,98376.69
2023-01-20T22:09:00.425Z,98377.07
2023-01-20T22:14:09.323Z,98375.11
2023-01-20T22:19:14.763Z,98368.52
2023-01-20T22:24:17.939Z,98373.77
2023-01-20T22:29:20.190Z,98370.90
2023-01-20T22:34:22.570Z,98371.04
2023-01-20T22:39:24.913Z,98372.73
2023-01-20T22:44:27.764Z,98383.66
2023-01-20T22:49:30.005Z,98379.49
2023-01-20T22:54:32.230Z,98374.23
2023-01-20T22:59:39.554Z,98374.25
2023-01-20T23:04:42.023Z,98374.73
2023-01-20T23:09:46.426Z,98366.83
2023-01-20T23:15:04.464Z,98368.58
2023-01-20T23:20:08.597Z,98362.45
2023-01-20T23:25:11.371Z,98362.92
2023-01-20T23:30:13.656Z,98362.81
2023-01-20T23:35:22.667Z,98366.09
2023-01-20T23:40:27.571Z,98367.23
2023-01-20T23:45:30.025Z,98365.89
2023-01-20T23:50:32.395Z,98365.08
2023-01-20T23:55:37.060Z,98365.73
